sensor_id;sensor_type;location;lat;lon;timestamp;P1;durP1;ratioP1;P2;durP2;ratioP2
6133;SDS011;3098;42.678;23.364;2024-03-25T00:01:02;2.38;;;0.28;;
6133;SDS011;3098;42.678;23.364;2024-03-25T00:03:27;1.10;;;0.40;;
6133;SDS011;3098;42.678;23.364;2024-03-25T00:05:52;0.15;;;0.15;;
6133;SDS011;3098;42.678;23.364;2024-03-25T00:08:18;0.68;;;0.30;;
6133;SDS011;3098;42.678;23.364;2024-03-25T00:10:44;0.68;;;0.28;;
6133;SDS011;3098;42.678;23.364;2024-03-25T00:13:09;0.90;;;0.30;;
6133;SDS011;3098;42.678;23.364;2024-03-25T00:15:35;0.20;;;0.20;;
6133;SDS011;3098;42.678;23.364;2024-03-25T00:18:03;1.83;;;0.55;;
6133;SDS011;3098;42.678;23.364;2024-03-25T00:20:29;0.60;;;0.40;;
6133;SDS011;3098;42.678;23.364;2024-03-25T00:22:54;1.13;;;0.47;;
6133;SDS011;3098;42.678;23.364;2024-03-25T00:25:20;1.58;;;0.57;;
6133;SDS011;3098;42.678;23.364;2024-03-25T00:27:46;0.38;;;0.22;;
6133;SDS011;3098;42.678;23.364;2024-03-25T00:30:12;0.63;;;0.40;;
6133;SDS011;3098;42.678;23.364;2024-03-25T00:32:38;0.98;;;0.30;;
6133;SDS011;3098;42.678;23.364;2024-03-25T00:35:05;0.90;;;0.35;;
6133;SDS011;3098;42.678;23.364;2024-03-25T00:37:31;1.40;;;0.70;;
6133;SDS011;3098;42.678;23.364;2024-03-25T00:39:56;1.33;;;0.60;;
6133;SDS011;3098;42.678;23.364;2024-03-25T00:42:22;0.95;;;0.50;;
6133;SDS011;3098;42.678;23.364;2024-03-25T00:44:48;0.90;;;0.68;;
6133;SDS011;3098;42.678;23.364;2024-03-25T00:47:14;0.93;;;0.40;;
6133;SDS011;3098;42.678;23.364;2024-03-25T00:49:39;0.55;;;0.28;;
6133;SDS011;3098;42.678;23.364;2024-03-25T00:52:05;2.20;;;0.50;;
6133;SDS011;3098;42.678;23.364;2024-03-25T00:54:30;0.30;;;0.30;;
6133;SDS011;3098;42.678;23.364;2024-03-25T00:56:56;0.30;;;0.20;;
6133;SDS011;3098;42.678;23.364;2024-03-25T00:59:22;0.08;;;0.08;;
6133;SDS011;3098;42.678;23.364;2024-03-25T01:01:47;1.33;;;0.30;;
6133;SDS011;3098;42.678;23.364;2024-03-25T01:04:13;0.10;;;0.10;;
6133;SDS011;3098;42.678;23.364;2024-03-25T01:06:38;0.73;;;0.28;;
6133;SDS011;3098;42.678;23.364;2024-03-25T01:09:04;0.10;;;0.10;;
6133;SDS011;3098;42.678;23.364;2024-03-25T01:11:29;0.50;;;0.25;;
6133;SDS011;3098;42.678;23.364;2024-03-25T01:13:55;0.17;;;0.10;;
6133;SDS011;3098;42.678;23.364;2024-03-25T01:16:21;0.80;;;0.10;;
6133;SDS011;3098;42.678;23.364;2024-03-25T01:18:47;0.10;;;0.10;;
6133;SDS011;3098;42.678;23.364;2024-03-25T01:21:13;0.65;;;0.20;;
6133;SDS011;3098;42.678;23.364;2024-03-25T01:23:40;0.10;;;0.10;;
6133;SDS011;3098;42.678;23.364;2024-03-25T01:26:05;1.00;;;0.10;;
6133;SDS011;3098;42.678;23.364;2024-03-25T01:28:31;0.82;;;0.20;;
6133;SDS011;3098;42.678;23.364;2024-03-25T01:30:57;0.05;;;0.05;;
6133;SDS011;3098;42.678;23.364;2024-03-25T01:33:23;0.90;;;0.40;;
6133;SDS011;3098;42.678;23.364;2024-03-25T01:35:48;0.30;;;0.20;;
6133;SDS011;3098;42.678;23.364;2024-03-25T01:38:14;0.00;;;0.00;;
6133;SDS011;3098;42.678;23.364;2024-03-25T01:40:40;0.60;;;0.10;;
6133;SDS011;3098;42.678;23.364;2024-03-25T01:43:05;0.00;;;0.00;;
6133;SDS011;3098;42.678;23.364;2024-03-25T01:45:34;0.30;;;0.30;;
6133;SDS011;3098;42.678;23.364;2024-03-25T01:48:07;0.00;;;0.00;;
6133;SDS011;3098;42.678;23.364;2024-03-25T01:50:39;0.15;;;0.15;;
6133;SDS011;3098;42.678;23.364;2024-03-25T01:53:08;0.30;;;0.17;;
6133;SDS011;3098;42.678;23.364;2024-03-25T01:55:35;0.15;;;0.10;;
6133;SDS011;3098;42.678;23.364;2024-03-25T01:58:01;0.32;;;0.20;;
6133;SDS011;3098;42.678;23.364;2024-03-25T02:00:29;0.30;;;0.10;;
6133;SDS011;3098;42.678;23.364;2024-03-25T02:02:55;0.00;;;0.00;;
6133;SDS011;3098;42.678;23.364;2024-03-25T02:05:21;0.08;;;0.03;;
6133;SDS011;3098;42.678;23.364;2024-03-25T02:07:47;0.15;;;0.10;;
6133;SDS011;3098;42.678;23.364;2024-03-25T02:10:15;0.00;;;0.00;;
6133;SDS011;3098;42.678;23.364;2024-03-25T02:12:44;0.10;;;0.00;;
6133;SDS011;3098;42.678;23.364;2024-03-25T02:15:11;1.35;;;0.25;;
6133;SDS011;3098;42.678;23.364;2024-03-25T02:17:38;0.20;;;0.10;;
6133;SDS011;3098;42.678;23.364;2024-03-25T02:20:05;0.77;;;0.40;;
6133;SDS011;3098;42.678;23.364;2024-03-25T02:22:33;0.30;;;0.20;;
6133;SDS011;3098;42.678;23.364;2024-03-25T02:24:58;0.20;;;0.20;;
6133;SDS011;3098;42.678;23.364;2024-03-25T02:27:26;0.40;;;0.28;;
6133;SDS011;3098;42.678;23.364;2024-03-25T02:30:00;0.22;;;0.22;;
6133;SDS011;3098;42.678;23.364;2024-03-25T02:32:28;0.30;;;0.30;;
6133;SDS011;3098;42.678;23.364;2024-03-25T02:34:55;0.90;;;0.40;;
6133;SDS011;3098;42.678;23.364;2024-03-25T02:37:21;0.20;;;0.20;;
6133;SDS011;3098;42.678;23.364;2024-03-25T02:39:47;0.32;;;0.20;;
6133;SDS011;3098;42.678;23.364;2024-03-25T02:42:13;0.28;;;0.20;;
6133;SDS011;3098;42.678;23.364;2024-03-25T02:44:39;0.30;;;0.30;;
6133;SDS011;3098;42.678;23.364;2024-03-25T02:47:08;0.65;;;0.40;;
6133;SDS011;3098;42.678;23.364;2024-03-25T02:49:34;0.57;;;0.40;;
6133;SDS011;3098;42.678;23.364;2024-03-25T02:52:00;0.38;;;0.20;;
6133;SDS011;3098;42.678;23.364;2024-03-25T02:54:26;0.30;;;0.30;;
6133;SDS011;3098;42.678;23.364;2024-03-25T02:56:51;0.32;;;0.32;;
6133;SDS011;3098;42.678;23.364;2024-03-25T02:59:17;0.10;;;0.10;;
6133;SDS011;3098;42.678;23.364;2024-03-25T03:01:43;0.40;;;0.20;;
6133;SDS011;3098;42.678;23.364;2024-03-25T03:04:09;0.38;;;0.28;;
6133;SDS011;3098;42.678;23.364;2024-03-25T03:06:34;0.28;;;0.28;;
6133;SDS011;3098;42.678;23.364;2024-03-25T03:09:00;0.32;;;0.30;;
6133;SDS011;3098;42.678;23.364;2024-03-25T03:11:25;0.80;;;0.40;;
6133;SDS011;3098;42.678;23.364;2024-03-25T03:13:50;0.40;;;0.40;;
6133;SDS011;3098;42.678;23.364;2024-03-25T03:16:16;0.40;;;0.30;;
6133;SDS011;3098;42.678;23.364;2024-03-25T03:18:41;0.68;;;0.50;;
6133;SDS011;3098;42.678;23.364;2024-03-25T03:21:07;0.85;;;0.60;;
6133;SDS011;3098;42.678;23.364;2024-03-25T03:23:32;0.88;;;0.70;;
6133;SDS011;3098;42.678;23.364;2024-03-25T03:25:58;0.85;;;0.57;;
6133;SDS011;3098;42.678;23.364;2024-03-25T03:28:25;0.85;;;0.60;;
6133;SDS011;3098;42.678;23.364;2024-03-25T03:30:50;0.57;;;0.57;;
6133;SDS011;3098;42.678;23.364;2024-03-25T03:33:16;1.50;;;0.50;;
6133;SDS011;3098;42.678;23.364;2024-03-25T03:35:42;0.50;;;0.50;;
6133;SDS011;3098;42.678;23.364;2024-03-25T03:38:08;0.65;;;0.57;;
6133;SDS011;3098;42.678;23.364;2024-03-25T03:40:33;0.93;;;0.55;;
6133;SDS011;3098;42.678;23.364;2024-03-25T03:42:59;0.90;;;0.60;;
6133;SDS011;3098;42.678;23.364;2024-03-25T03:45:24;0.32;;;0.32;;
6133;SDS011;3098;42.678;23.364;2024-03-25T03:47:50;1.98;;;0.80;;
6133;SDS011;3098;42.678;23.364;2024-03-25T03:50:16;0.47;;;0.47;;
6133;SDS011;3098;42.678;23.364;2024-03-25T03:52:42;2.05;;;1.25;;
6133;SDS011;3098;42.678;23.364;2024-03-25T03:55:08;0.85;;;0.50;;
6133;SDS011;3098;42.678;23.364;2024-03-25T03:57:34;0.80;;;0.60;;
6133;SDS011;3098;42.678;23.364;2024-03-25T04:00:00;1.10;;;0.70;;
6133;SDS011;3098;42.678;23.364;2024-03-25T04:02:27;1.20;;;0.70;;
6133;SDS011;3098;42.678;23.364;2024-03-25T04:04:56;1.25;;;0.60;;
6133;SDS011;3098;42.678;23.364;2024-03-25T04:07:21;0.90;;;0.82;;
6133;SDS011;3098;42.678;23.364;2024-03-25T04:09:53;1.15;;;0.80;;
6133;SDS011;3098;42.678;23.364;2024-03-25T04:12:19;1.70;;;1.23;;
6133;SDS011;3098;42.678;23.364;2024-03-25T04:14:47;2.17;;;1.20;;
6133;SDS011;3098;42.678;23.364;2024-03-25T04:17:14;2.05;;;1.10;;
6133;SDS011;3098;42.678;23.364;2024-03-25T04:19:40;2.10;;;1.25;;
6133;SDS011;3098;42.678;23.364;2024-03-25T04:22:06;1.98;;;0.90;;
6133;SDS011;3098;42.678;23.364;2024-03-25T04:24:32;0.88;;;0.65;;
6133;SDS011;3098;42.678;23.364;2024-03-25T04:26:59;0.98;;;0.82;;
6133;SDS011;3098;42.678;23.364;2024-03-25T04:29:25;1.55;;;1.10;;
6133;SDS011;3098;42.678;23.364;2024-03-25T04:31:50;4.90;;;1.23;;
6133;SDS011;3098;42.678;23.364;2024-03-25T04:34:16;3.28;;;1.80;;
6133;SDS011;3098;42.678;23.364;2024-03-25T04:36:42;3.25;;;1.95;;
6133;SDS011;3098;42.678;23.364;2024-03-25T04:39:07;5.50;;;2.10;;
6133;SDS011;3098;42.678;23.364;2024-03-25T04:41:33;3.65;;;1.88;;
6133;SDS011;3098;42.678;23.364;2024-03-25T04:43:59;4.18;;;2.42;;
6133;SDS011;3098;42.678;23.364;2024-03-25T04:46:25;5.63;;;2.05;;
6133;SDS011;3098;42.678;23.364;2024-03-25T04:48:50;2.22;;;1.50;;
6133;SDS011;3098;42.678;23.364;2024-03-25T04:51:16;2.90;;;1.73;;
6133;SDS011;3098;42.678;23.364;2024-03-25T04:53:41;7.00;;;3.13;;
6133;SDS011;3098;42.678;23.364;2024-03-25T04:56:07;3.10;;;1.85;;
6133;SDS011;3098;42.678;23.364;2024-03-25T04:58:32;6.20;;;3.20;;
6133;SDS011;3098;42.678;23.364;2024-03-25T05:00:58;8.30;;;3.20;;
6133;SDS011;3098;42.678;23.364;2024-03-25T05:03:24;5.60;;;3.47;;
6133;SDS011;3098;42.678;23.364;2024-03-25T05:05:49;7.07;;;2.95;;
6133;SDS011;3098;42.678;23.364;2024-03-25T05:08:15;4.40;;;2.75;;
6133;SDS011;3098;42.678;23.364;2024-03-25T05:10:41;5.15;;;3.53;;
6133;SDS011;3098;42.678;23.364;2024-03-25T05:13:06;6.78;;;3.20;;
6133;SDS011;3098;42.678;23.364;2024-03-25T05:15:32;5.18;;;2.67;;
6133;SDS011;3098;42.678;23.364;2024-03-25T05:17:57;3.40;;;1.80;;
6133;SDS011;3098;42.678;23.364;2024-03-25T05:20:23;7.25;;;4.35;;
6133;SDS011;3098;42.678;23.364;2024-03-25T05:22:49;8.32;;;3.55;;
6133;SDS011;3098;42.678;23.364;2024-03-25T05:25:14;6.20;;;3.35;;
6133;SDS011;3098;42.678;23.364;2024-03-25T05:27:40;8.85;;;3.92;;
6133;SDS011;3098;42.678;23.364;2024-03-25T05:30:05;6.55;;;3.70;;
6133;SDS011;3098;42.678;23.364;2024-03-25T05:32:31;7.32;;;4.30;;
6133;SDS011;3098;42.678;23.364;2024-03-25T05:34:57;7.65;;;4.43;;
6133;SDS011;3098;42.678;23.364;2024-03-25T05:37:22;6.97;;;3.63;;
6133;SDS011;3098;42.678;23.364;2024-03-25T05:39:48;5.32;;;3.60;;
6133;SDS011;3098;42.678;23.364;2024-03-25T05:42:13;9.15;;;4.43;;
6133;SDS011;3098;42.678;23.364;2024-03-25T05:44:39;8.35;;;4.65;;
6133;SDS011;3098;42.678;23.364;2024-03-25T05:47:05;6.70;;;3.88;;
6133;SDS011;3098;42.678;23.364;2024-03-25T05:49:31;7.43;;;4.18;;
6133;SDS011;3098;42.678;23.364;2024-03-25T05:51:56;9.18;;;5.20;;
6133;SDS011;3098;42.678;23.364;2024-03-25T05:54:22;11.35;;;3.70;;
6133;SDS011;3098;42.678;23.364;2024-03-25T05:56:47;7.60;;;4.55;;
6133;SDS011;3098;42.678;23.364;2024-03-25T05:59:13;5.80;;;3.72;;
6133;SDS011;3098;42.678;23.364;2024-03-25T06:01:38;6.60;;;3.92;;
6133;SDS011;3098;42.678;23.364;2024-03-25T06:04:05;5.18;;;3.42;;
6133;SDS011;3098;42.678;23.364;2024-03-25T06:06:31;4.22;;;2.55;;
6133;SDS011;3098;42.678;23.364;2024-03-25T06:08:57;7.47;;;3.85;;
6133;SDS011;3098;42.678;23.364;2024-03-25T06:11:23;9.60;;;4.63;;
6133;SDS011;3098;42.678;23.364;2024-03-25T06:13:48;10.20;;;4.85;;
6133;SDS011;3098;42.678;23.364;2024-03-25T06:16:14;10.05;;;5.65;;
6133;SDS011;3098;42.678;23.364;2024-03-25T06:18:39;6.85;;;4.13;;
6133;SDS011;3098;42.678;23.364;2024-03-25T06:21:06;7.63;;;5.07;;
6133;SDS011;3098;42.678;23.364;2024-03-25T06:23:32;8.93;;;4.93;;
6133;SDS011;3098;42.678;23.364;2024-03-25T06:25:57;7.07;;;4.00;;
6133;SDS011;3098;42.678;23.364;2024-03-25T06:28:24;6.05;;;3.70;;
6133;SDS011;3098;42.678;23.364;2024-03-25T06:30:50;7.07;;;4.22;;
6133;SDS011;3098;42.678;23.364;2024-03-25T06:33:35;7.00;;;4.30;;
6133;SDS011;3098;42.678;23.364;2024-03-25T06:36:19;9.98;;;4.95;;
6133;SDS011;3098;42.678;23.364;2024-03-25T06:38:45;7.75;;;4.55;;
6133;SDS011;3098;42.678;23.364;2024-03-25T06:41:11;8.32;;;4.68;;
6133;SDS011;3098;42.678;23.364;2024-03-25T06:43:37;8.07;;;4.20;;
6133;SDS011;3098;42.678;23.364;2024-03-25T06:46:06;8.13;;;5.07;;
6133;SDS011;3098;42.678;23.364;2024-03-25T06:48:32;9.30;;;4.00;;
6133;SDS011;3098;42.678;23.364;2024-03-25T06:51:01;7.30;;;3.67;;
6133;SDS011;3098;42.678;23.364;2024-03-25T06:53:28;7.18;;;4.45;;
6133;SDS011;3098;42.678;23.364;2024-03-25T06:55:57;9.23;;;4.95;;
6133;SDS011;3098;42.678;23.364;2024-03-25T06:58:24;4.55;;;3.30;;
6133;SDS011;3098;42.678;23.364;2024-03-25T07:00:52;7.00;;;3.92;;
6133;SDS011;3098;42.678;23.364;2024-03-25T07:03:19;7.32;;;4.60;;
6133;SDS011;3098;42.678;23.364;2024-03-25T07:05:46;6.97;;;4.85;;
6133;SDS011;3098;42.678;23.364;2024-03-25T07:08:12;9.10;;;5.03;;
6133;SDS011;3098;42.678;23.364;2024-03-25T07:10:38;7.20;;;3.88;;
6133;SDS011;3098;42.678;23.364;2024-03-25T07:13:06;8.18;;;3.85;;
6133;SDS011;3098;42.678;23.364;2024-03-25T07:15:31;4.03;;;2.92;;
6133;SDS011;3098;42.678;23.364;2024-03-25T07:17:57;8.30;;;3.97;;
6133;SDS011;3098;42.678;23.364;2024-03-25T07:20:25;6.13;;;3.58;;
6133;SDS011;3098;42.678;23.364;2024-03-25T07:22:51;7.18;;;4.57;;
6133;SDS011;3098;42.678;23.364;2024-03-25T07:25:21;7.13;;;3.85;;
6133;SDS011;3098;42.678;23.364;2024-03-25T07:27:47;5.35;;;3.10;;
6133;SDS011;3098;42.678;23.364;2024-03-25T07:30:13;5.95;;;4.82;;
6133;SDS011;3098;42.678;23.364;2024-03-25T07:32:39;6.18;;;4.03;;
6133;SDS011;3098;42.678;23.364;2024-03-25T07:35:05;4.90;;;3.25;;
6133;SDS011;3098;42.678;23.364;2024-03-25T07:37:32;6.72;;;4.45;;
6133;SDS011;3098;42.678;23.364;2024-03-25T07:39:58;5.50;;;3.70;;
6133;SDS011;3098;42.678;23.364;2024-03-25T07:42:24;2.97;;;2.53;;
6133;SDS011;3098;42.678;23.364;2024-03-25T07:44:50;7.03;;;4.10;;
6133;SDS011;3098;42.678;23.364;2024-03-25T07:47:15;6.88;;;4.68;;
6133;SDS011;3098;42.678;23.364;2024-03-25T07:49:41;13.10;;;4.25;;
6133;SDS011;3098;42.678;23.364;2024-03-25T07:52:07;5.00;;;3.88;;
6133;SDS011;3098;42.678;23.364;2024-03-25T07:54:33;6.25;;;4.93;;
6133;SDS011;3098;42.678;23.364;2024-03-25T07:56:59;7.03;;;4.00;;
6133;SDS011;3098;42.678;23.364;2024-03-25T07:59:24;4.63;;;3.45;;
6133;SDS011;3098;42.678;23.364;2024-03-25T08:01:50;6.32;;;3.20;;
6133;SDS011;3098;42.678;23.364;2024-03-25T08:04:16;4.25;;;3.35;;
6133;SDS011;3098;42.678;23.364;2024-03-25T08:06:41;8.55;;;3.95;;
6133;SDS011;3098;42.678;23.364;2024-03-25T08:09:07;5.97;;;3.88;;
6133;SDS011;3098;42.678;23.364;2024-03-25T08:11:35;6.03;;;3.38;;
6133;SDS011;3098;42.678;23.364;2024-03-25T08:14:01;4.25;;;3.08;;
6133;SDS011;3098;42.678;23.364;2024-03-25T08:16:26;4.30;;;3.25;;
6133;SDS011;3098;42.678;23.364;2024-03-25T08:18:53;5.47;;;3.97;;
6133;SDS011;3098;42.678;23.364;2024-03-25T08:21:18;5.22;;;3.40;;
6133;SDS011;3098;42.678;23.364;2024-03-25T08:23:44;5.82;;;4.20;;
6133;SDS011;3098;42.678;23.364;2024-03-25T08:26:10;4.88;;;3.50;;
6133;SDS011;3098;42.678;23.364;2024-03-25T08:28:36;5.20;;;3.65;;
6133;SDS011;3098;42.678;23.364;2024-03-25T08:31:03;6.30;;;4.03;;
6133;SDS011;3098;42.678;23.364;2024-03-25T08:33:29;6.28;;;4.10;;
6133;SDS011;3098;42.678;23.364;2024-03-25T08:35:55;5.15;;;2.60;;
6133;SDS011;3098;42.678;23.364;2024-03-25T08:38:22;7.97;;;3.47;;
6133;SDS011;3098;42.678;23.364;2024-03-25T08:40:47;4.68;;;3.50;;
6133;SDS011;3098;42.678;23.364;2024-03-25T08:43:13;4.30;;;3.53;;
6133;SDS011;3098;42.678;23.364;2024-03-25T08:45:39;6.47;;;3.40;;
6133;SDS011;3098;42.678;23.364;2024-03-25T08:48:05;3.83;;;2.85;;
6133;SDS011;3098;42.678;23.364;2024-03-25T08:50:34;4.10;;;3.08;;
6133;SDS011;3098;42.678;23.364;2024-03-25T08:53:00;4.25;;;3.28;;
6133;SDS011;3098;42.678;23.364;2024-03-25T08:55:26;3.75;;;3.05;;
6133;SDS011;3098;42.678;23.364;2024-03-25T08:57:52;3.38;;;2.05;;
6133;SDS011;3098;42.678;23.364;2024-03-25T09:00:18;3.45;;;2.75;;
6133;SDS011;3098;42.678;23.364;2024-03-25T09:02:44;4.80;;;3.13;;
6133;SDS011;3098;42.678;23.364;2024-03-25T09:05:10;6.82;;;3.28;;
6133;SDS011;3098;42.678;23.364;2024-03-25T09:07:36;4.43;;;3.45;;
6133;SDS011;3098;42.678;23.364;2024-03-25T09:10:02;3.65;;;2.70;;
6133;SDS011;3098;42.678;23.364;2024-03-25T09:12:46;5.35;;;2.88;;
6133;SDS011;3098;42.678;23.364;2024-03-25T09:15:12;9.15;;;3.67;;
6133;SDS011;3098;42.678;23.364;2024-03-25T09:17:37;7.28;;;3.47;;
6133;SDS011;3098;42.678;23.364;2024-03-25T09:20:04;6.68;;;2.97;;
6133;SDS011;3098;42.678;23.364;2024-03-25T09:25:06;6.07;;;2.55;;
6133;SDS011;3098;42.678;23.364;2024-03-25T09:27:32;7.57;;;2.83;;
6133;SDS011;3098;42.678;23.364;2024-03-25T09:29:58;3.50;;;2.50;;
6133;SDS011;3098;42.678;23.364;2024-03-25T09:32:23;6.75;;;3.75;;
6133;SDS011;3098;42.678;23.364;2024-03-25T09:34:49;6.88;;;4.40;;
6133;SDS011;3098;42.678;23.364;2024-03-25T09:37:15;7.10;;;4.00;;
6133;SDS011;3098;42.678;23.364;2024-03-25T09:39:41;5.38;;;2.55;;
6133;SDS011;3098;42.678;23.364;2024-03-25T09:42:07;4.25;;;3.10;;
6133;SDS011;3098;42.678;23.364;2024-03-25T09:44:33;6.20;;;4.32;;
6133;SDS011;3098;42.678;23.364;2024-03-25T09:47:00;4.63;;;3.90;;
6133;SDS011;3098;42.678;23.364;2024-03-25T09:49:26;4.28;;;3.15;;
6133;SDS011;3098;42.678;23.364;2024-03-25T09:51:53;2.63;;;1.80;;
6133;SDS011;3098;42.678;23.364;2024-03-25T09:54:19;6.65;;;3.88;;
6133;SDS011;3098;42.678;23.364;2024-03-25T09:56:44;7.05;;;4.28;;
6133;SDS011;3098;42.678;23.364;2024-03-25T09:59:10;5.68;;;3.53;;
6133;SDS011;3098;42.678;23.364;2024-03-25T10:01:37;3.92;;;2.83;;
6133;SDS011;3098;42.678;23.364;2024-03-25T10:04:02;7.60;;;2.83;;
6133;SDS011;3098;42.678;23.364;2024-03-25T10:06:28;2.80;;;2.15;;
6133;SDS011;3098;42.678;23.364;2024-03-25T10:08:54;4.40;;;2.97;;
6133;SDS011;3098;42.678;23.364;2024-03-25T10:11:22;5.40;;;3.60;;
6133;SDS011;3098;42.678;23.364;2024-03-25T10:13:47;4.68;;;3.42;;
6133;SDS011;3098;42.678;23.364;2024-03-25T10:16:13;3.53;;;2.33;;
6133;SDS011;3098;42.678;23.364;2024-03-25T10:18:39;6.18;;;3.08;;
6133;SDS011;3098;42.678;23.364;2024-03-25T10:21:06;3.65;;;2.55;;
6133;SDS011;3098;42.678;23.364;2024-03-25T10:23:35;6.25;;;2.92;;
6133;SDS011;3098;42.678;23.364;2024-03-25T10:26:05;5.07;;;3.40;;
6133;SDS011;3098;42.678;23.364;2024-03-25T10:28:31;2.38;;;2.00;;
6133;SDS011;3098;42.678;23.364;2024-03-25T10:31:02;4.70;;;3.70;;
6133;SDS011;3098;42.678;23.364;2024-03-25T10:33:29;5.20;;;3.25;;
6133;SDS011;3098;42.678;23.364;2024-03-25T10:35:55;4.00;;;2.65;;
6133;SDS011;3098;42.678;23.364;2024-03-25T10:38:25;6.13;;;2.80;;
6133;SDS011;3098;42.678;23.364;2024-03-25T10:40:51;2.92;;;2.13;;
6133;SDS011;3098;42.678;23.364;2024-03-25T10:43:20;2.72;;;1.95;;
6133;SDS011;3098;42.678;23.364;2024-03-25T10:45:51;5.57;;;2.58;;
6133;SDS011;3098;42.678;23.364;2024-03-25T10:48:34;4.38;;;2.38;;
6133;SDS011;3098;42.678;23.364;2024-03-25T10:51:04;3.55;;;2.13;;
6133;SDS011;3098;42.678;23.364;2024-03-25T10:53:32;4.28;;;2.47;;
6133;SDS011;3098;42.678;23.364;2024-03-25T10:56:01;2.63;;;1.90;;
6133;SDS011;3098;42.678;23.364;2024-03-25T10:58:30;4.03;;;1.83;;
6133;SDS011;3098;42.678;23.364;2024-03-25T11:00:58;3.88;;;2.35;;
6133;SDS011;3098;42.678;23.364;2024-03-25T11:03:25;2.85;;;1.98;;
6133;SDS011;3098;42.678;23.364;2024-03-25T11:05:52;3.70;;;2.40;;
6133;SDS011;3098;42.678;23.364;2024-03-25T11:08:17;2.55;;;1.50;;
6133;SDS011;3098;42.678;23.364;2024-03-25T11:10:44;2.75;;;1.38;;
6133;SDS011;3098;42.678;23.364;2024-03-25T11:13:14;5.75;;;2.42;;
6133;SDS011;3098;42.678;23.364;2024-03-25T11:15:42;3.60;;;2.63;;
6133;SDS011;3098;42.678;23.364;2024-03-25T11:18:13;3.70;;;2.17;;
6133;SDS011;3098;42.678;23.364;2024-03-25T11:20:39;2.53;;;1.95;;
6133;SDS011;3098;42.678;23.364;2024-03-25T11:23:09;3.03;;;2.25;;
6133;SDS011;3098;42.678;23.364;2024-03-25T11:25:39;3.30;;;2.17;;
6133;SDS011;3098;42.678;23.364;2024-03-25T11:28:06;1.70;;;1.30;;
6133;SDS011;3098;42.678;23.364;2024-03-25T11:30:32;4.45;;;1.77;;
6133;SDS011;3098;42.678;23.364;2024-03-25T11:33:00;2.22;;;1.70;;
6133;SDS011;3098;42.678;23.364;2024-03-25T11:35:27;2.92;;;1.67;;
6133;SDS011;3098;42.678;23.364;2024-03-25T11:37:52;3.65;;;1.77;;
6133;SDS011;3098;42.678;23.364;2024-03-25T11:40:18;2.47;;;1.40;;
6133;SDS011;3098;42.678;23.364;2024-03-25T11:42:44;11.40;;;1.67;;
6133;SDS011;3098;42.678;23.364;2024-03-25T11:45:15;2.50;;;2.20;;
6133;SDS011;3098;42.678;23.364;2024-03-25T11:47:42;4.47;;;2.30;;
6133;SDS011;3098;42.678;23.364;2024-03-25T11:50:12;2.50;;;1.58;;
6133;SDS011;3098;42.678;23.364;2024-03-25T11:52:40;3.15;;;1.80;;
6133;SDS011;3098;42.678;23.364;2024-03-25T11:55:06;4.22;;;2.60;;
6133;SDS011;3098;42.678;23.364;2024-03-25T11:57:37;4.55;;;2.30;;
6133;SDS011;3098;42.678;23.364;2024-03-25T12:00:03;2.05;;;1.67;;
6133;SDS011;3098;42.678;23.364;2024-03-25T12:02:31;5.43;;;2.50;;
6133;SDS011;3098;42.678;23.364;2024-03-25T12:04:57;1.95;;;1.48;;
6133;SDS011;3098;42.678;23.364;2024-03-25T12:07:23;3.90;;;2.33;;
6133;SDS011;3098;42.678;23.364;2024-03-25T12:09:49;4.97;;;2.33;;
6133;SDS011;3098;42.678;23.364;2024-03-25T12:12:33;3.60;;;2.13;;
6133;SDS011;3098;42.678;23.364;2024-03-25T12:15:04;2.55;;;1.70;;
6133;SDS011;3098;42.678;23.364;2024-03-25T12:17:32;4.82;;;1.92;;
6133;SDS011;3098;42.678;23.364;2024-03-25T12:22:25;2.33;;;1.80;;
6133;SDS011;3098;42.678;23.364;2024-03-25T12:24:52;2.75;;;2.10;;
6133;SDS011;3098;42.678;23.364;2024-03-25T12:27:18;4.18;;;2.10;;
6133;SDS011;3098;42.678;23.364;2024-03-25T12:29:43;1.88;;;1.42;;
6133;SDS011;3098;42.678;23.364;2024-03-25T12:32:12;3.80;;;2.53;;
6133;SDS011;3098;42.678;23.364;2024-03-25T12:34:37;4.00;;;1.92;;
6133;SDS011;3098;42.678;23.364;2024-03-25T12:37:03;2.17;;;1.58;;
6133;SDS011;3098;42.678;23.364;2024-03-25T12:39:29;3.65;;;2.33;;
6133;SDS011;3098;42.678;23.364;2024-03-25T12:41:55;2.83;;;2.35;;
6133;SDS011;3098;42.678;23.364;2024-03-25T12:44:21;3.47;;;2.28;;
6133;SDS011;3098;42.678;23.364;2024-03-25T12:46:47;3.00;;;2.05;;
6133;SDS011;3098;42.678;23.364;2024-03-25T12:49:12;4.25;;;2.28;;
6133;SDS011;3098;42.678;23.364;2024-03-25T12:51:38;1.77;;;1.42;;
6133;SDS011;3098;42.678;23.364;2024-03-25T12:54:04;6.47;;;1.77;;
6133;SDS011;3098;42.678;23.364;2024-03-25T12:56:29;6.25;;;1.52;;
6133;SDS011;3098;42.678;23.364;2024-03-25T12:58:55;1.98;;;1.48;;
6133;SDS011;3098;42.678;23.364;2024-03-25T13:01:21;2.72;;;1.67;;
6133;SDS011;3098;42.678;23.364;2024-03-25T13:03:46;1.60;;;0.90;;
6133;SDS011;3098;42.678;23.364;2024-03-25T13:06:12;3.47;;;1.73;;
6133;SDS011;3098;42.678;23.364;2024-03-25T13:08:37;4.65;;;1.88;;
6133;SDS011;3098;42.678;23.364;2024-03-25T13:11:03;1.77;;;1.27;;
6133;SDS011;3098;42.678;23.364;2024-03-25T13:13:29;2.95;;;1.38;;
6133;SDS011;3098;42.678;23.364;2024-03-25T13:16:02;2.05;;;1.33;;
6133;SDS011;3098;42.678;23.364;2024-03-25T13:18:27;2.28;;;1.30;;
6133;SDS011;3098;42.678;23.364;2024-03-25T13:20:53;3.45;;;1.90;;
6133;SDS011;3098;42.678;23.364;2024-03-25T13:23:18;1.35;;;1.08;;
6133;SDS011;3098;42.678;23.364;2024-03-25T13:25:44;2.00;;;1.60;;
6133;SDS011;3098;42.678;23.364;2024-03-25T13:28:10;3.38;;;2.03;;
6133;SDS011;3098;42.678;23.364;2024-03-25T13:30:36;3.22;;;1.85;;
6133;SDS011;3098;42.678;23.364;2024-03-25T13:33:02;4.50;;;2.35;;
6133;SDS011;3098;42.678;23.364;2024-03-25T13:35:28;3.35;;;2.17;;
6133;SDS011;3098;42.678;23.364;2024-03-25T13:37:54;3.75;;;1.73;;
6133;SDS011;3098;42.678;23.364;2024-03-25T13:40:19;3.35;;;2.13;;
6133;SDS011;3098;42.678;23.364;2024-03-25T13:42:45;1.67;;;1.27;;
6133;SDS011;3098;42.678;23.364;2024-03-25T13:45:12;2.72;;;2.15;;
6133;SDS011;3098;42.678;23.364;2024-03-25T13:47:37;2.88;;;1.67;;
6133;SDS011;3098;42.678;23.364;2024-03-25T13:50:04;2.95;;;1.73;;
6133;SDS011;3098;42.678;23.364;2024-03-25T13:52:32;4.57;;;1.73;;
6133;SDS011;3098;42.678;23.364;2024-03-25T13:54:58;2.50;;;1.63;;
6133;SDS011;3098;42.678;23.364;2024-03-25T13:57:23;3.10;;;1.63;;
6133;SDS011;3098;42.678;23.364;2024-03-25T13:59:50;2.13;;;1.45;;
6133;SDS011;3098;42.678;23.364;2024-03-25T14:02:16;2.35;;;1.85;;
6133;SDS011;3098;42.678;23.364;2024-03-25T14:04:42;3.83;;;1.52;;
6133;SDS011;3098;42.678;23.364;2024-03-25T14:07:07;2.97;;;1.33;;
6133;SDS011;3098;42.678;23.364;2024-03-25T14:09:33;2.60;;;0.93;;
6133;SDS011;3098;42.678;23.364;2024-03-25T14:11:59;0.95;;;0.75;;
6133;SDS011;3098;42.678;23.364;2024-03-25T14:14:24;0.47;;;0.47;;
6133;SDS011;3098;42.678;23.364;2024-03-25T14:16:51;2.28;;;0.80;;
6133;SDS011;3098;42.678;23.364;2024-03-25T14:19:17;0.95;;;0.60;;
6133;SDS011;3098;42.678;23.364;2024-03-25T14:21:43;2.30;;;1.23;;
6133;SDS011;3098;42.678;23.364;2024-03-25T14:24:09;3.92;;;1.00;;
6133;SDS011;3098;42.678;23.364;2024-03-25T14:26:34;3.70;;;1.40;;
6133;SDS011;3098;42.678;23.364;2024-03-25T14:29:00;1.27;;;1.00;;
6133;SDS011;3098;42.678;23.364;2024-03-25T14:31:26;2.22;;;1.25;;
6133;SDS011;3098;42.678;23.364;2024-03-25T14:33:54;1.50;;;1.20;;
6133;SDS011;3098;42.678;23.364;2024-03-25T14:36:20;1.40;;;0.95;;
6133;SDS011;3098;42.678;23.364;2024-03-25T14:38:46;0.30;;;0.30;;
6133;SDS011;3098;42.678;23.364;2024-03-25T14:41:12;0.95;;;0.60;;
6133;SDS011;3098;42.678;23.364;2024-03-25T14:43:39;1.77;;;1.00;;
6133;SDS011;3098;42.678;23.364;2024-03-25T14:46:07;1.67;;;0.88;;
6133;SDS011;3098;42.678;23.364;2024-03-25T14:48:32;3.60;;;1.23;;
6133;SDS011;3098;42.678;23.364;2024-03-25T14:50:58;1.02;;;0.63;;
6133;SDS011;3098;42.678;23.364;2024-03-25T14:53:23;3.25;;;1.25;;
6133;SDS011;3098;42.678;23.364;2024-03-25T14:55:49;4.95;;;1.17;;
6133;SDS011;3098;42.678;23.364;2024-03-25T14:58:16;2.63;;;1.25;;
6133;SDS011;3098;42.678;23.364;2024-03-25T15:00:43;4.68;;;1.00;;